sensor_id;sensor_type;location;lat;lon;timestamp;temperature;humidity
26053;DHT22;13826;51.186;4.450;2023-04-16T00:00:24;9.50;68.70
26053;DHT22;13826;51.186;4.450;2023-04-16T00:02:50;9.80;68.80
26053;DHT22;13826;51.186;4.450;2023-04-16T00:05:15;9.80;60.00
26053;DHT22;13826;51.186;4.450;2023-04-16T00:07:41;9.90;56.30
26053;DHT22;13826;51.186;4.450;2023-04-16T00:10:06;10.00;57.50
26053;DHT22;13826;51.186;4.450;2023-04-16T00:12:32;9.90;55.80
26053;DHT22;13826;51.186;4.450;2023-04-16T00:14:58;9.80;59.40
26053;DHT22;13826;51.186;4.450;2023-04-16T00:17:23;9.70;63.40
26053;DHT22;13826;51.186;4.450;2023-04-16T00:19:49;9.80;65.70
26053;DHT22;13826;51.186;4.450;2023-04-16T00:22:14;9.80;69.30
26053;DHT22;13826;51.186;4.450;2023-04-16T00:24:40;9.80;63.90
26053;DHT22;13826;51.186;4.450;2023-04-16T00:27:06;9.90;58.50
26053;DHT22;13826;51.186;4.450;2023-04-16T00:29:31;9.70;65.50
26053;DHT22;13826;51.186;4.450;2023-04-16T00:31:58;9.70;72.20
26053;DHT22;13826;51.186;4.450;2023-04-16T00:34:23;9.80;65.10
26053;DHT22;13826;51.186;4.450;2023-04-16T00:36:49;9.80;66.50
26053;DHT22;13826;51.186;4.450;2023-04-16T00:39:14;9.70;68.90
26053;DHT22;13826;51.186;4.450;2023-04-16T00:41:41;9.80;67.50
26053;DHT22;13826;51.186;4.450;2023-04-16T00:44:06;9.80;68.60
26053;DHT22;13826;51.186;4.450;2023-04-16T00:46:32;9.80;67.60
26053;DHT22;13826;51.186;4.450;2023-04-16T00:48:59;9.90;64.10
26053;DHT22;13826;51.186;4.450;2023-04-16T00:51:24;9.70;68.90
26053;DHT22;13826;51.186;4.450;2023-04-16T00:53:51;9.70;74.20
26053;DHT22;13826;51.186;4.450;2023-04-16T00:56:16;9.70;76.70
26053;DHT22;13826;51.186;4.450;2023-04-16T00:58:43;9.60;77.00
26053;DHT22;13826;51.186;4.450;2023-04-16T01:01:09;9.70;73.60
26053;DHT22;13826;51.186;4.450;2023-04-16T01:03:38;9.60;77.70
26053;DHT22;13826;51.186;4.450;2023-04-16T01:06:05;9.60;80.20
26053;DHT22;13826;51.186;4.450;2023-04-16T01:08:30;9.60;80.70
26053;DHT22;13826;51.186;4.450;2023-04-16T01:10:56;9.80;77.20
26053;DHT22;13826;51.186;4.450;2023-04-16T01:13:21;9.70;76.10
26053;DHT22;13826;51.186;4.450;2023-04-16T01:15:47;9.70;76.60
26053;DHT22;13826;51.186;4.450;2023-04-16T01:18:16;9.80;76.00
26053;DHT22;13826;51.186;4.450;2023-04-16T01:20:42;9.80;75.60
26053;DHT22;13826;51.186;4.450;2023-04-16T01:23:07;9.80;76.50
26053;DHT22;13826;51.186;4.450;2023-04-16T01:25:33;9.60;77.70
26053;DHT22;13826;51.186;4.450;2023-04-16T01:27:58;9.60;79.60
26053;DHT22;13826;51.186;4.450;2023-04-16T01:30:24;9.60;83.80
26053;DHT22;13826;51.186;4.450;2023-04-16T01:32:50;9.80;82.30
26053;DHT22;13826;51.186;4.450;2023-04-16T01:35:15;9.80;79.50
26053;DHT22;13826;51.186;4.450;2023-04-16T01:37:42;9.90;76.90
26053;DHT22;13826;51.186;4.450;2023-04-16T01:40:08;9.80;80.20
26053;DHT22;13826;51.186;4.450;2023-04-16T01:42:34;9.80;80.70
26053;DHT22;13826;51.186;4.450;2023-04-16T01:45:00;9.90;80.30
26053;DHT22;13826;51.186;4.450;2023-04-16T01:47:25;9.80;79.00
26053;DHT22;13826;51.186;4.450;2023-04-16T01:49:51;9.80;81.10
26053;DHT22;13826;51.186;4.450;2023-04-16T01:52:17;9.80;83.70
26053;DHT22;13826;51.186;4.450;2023-04-16T01:54:42;9.80;82.00
26053;DHT22;13826;51.186;4.450;2023-04-16T01:57:08;9.80;82.30
26053;DHT22;13826;51.186;4.450;2023-04-16T01:59:33;9.80;84.30
26053;DHT22;13826;51.186;4.450;2023-04-16T02:02:03;9.90;84.70
26053;DHT22;13826;51.186;4.450;2023-04-16T02:04:31;10.00;81.90
26053;DHT22;13826;51.186;4.450;2023-04-16T02:06:57;10.20;76.20
26053;DHT22;13826;51.186;4.450;2023-04-16T02:09:22;10.20;74.70
26053;DHT22;13826;51.186;4.450;2023-04-16T02:11:48;10.00;79.60
26053;DHT22;13826;51.186;4.450;2023-04-16T02:14:14;10.00;83.10
26053;DHT22;13826;51.186;4.450;2023-04-16T02:16:39;9.90;85.10
26053;DHT22;13826;51.186;4.450;2023-04-16T02:19:05;10.00;89.70
26053;DHT22;13826;51.186;4.450;2023-04-16T02:21:31;9.90;90.30
26053;DHT22;13826;51.186;4.450;2023-04-16T02:23:56;9.90;91.00
26053;DHT22;13826;51.186;4.450;2023-04-16T02:26:22;9.80;92.00
26053;DHT22;13826;51.186;4.450;2023-04-16T02:28:47;9.80;93.60
26053;DHT22;13826;51.186;4.450;2023-04-16T02:31:13;9.70;95.60
26053;DHT22;13826;51.186;4.450;2023-04-16T02:33:42;9.70;97.10
26053;DHT22;13826;51.186;4.450;2023-04-16T02:36:07;9.70;97.50
26053;DHT22;13826;51.186;4.450;2023-04-16T02:38:35;9.70;97.80
26053;DHT22;13826;51.186;4.450;2023-04-16T02:41:01;9.80;97.40
26053;DHT22;13826;51.186;4.450;2023-04-16T02:43:27;9.80;97.80
26053;DHT22;13826;51.186;4.450;2023-04-16T02:45:52;9.70;99.30
26053;DHT22;13826;51.186;4.450;2023-04-16T02:48:18;9.80;98.70
26053;DHT22;13826;51.186;4.450;2023-04-16T02:50:43;9.80;97.30
26053;DHT22;13826;51.186;4.450;2023-04-16T02:53:09;9.80;98.00
26053;DHT22;13826;51.186;4.450;2023-04-16T02:55:35;9.90;96.60
26053;DHT22;13826;51.186;4.450;2023-04-16T02:58:00;9.90;96.70
26053;DHT22;13826;51.186;4.450;2023-04-16T03:00:26;9.80;97.20
26053;DHT22;13826;51.186;4.450;2023-04-16T03:02:51;9.80;99.60
26053;DHT22;13826;51.186;4.450;2023-04-16T03:05:17;9.80;99.80
26053;DHT22;13826;51.186;4.450;2023-04-16T03:07:42;9.70;99.90
26053;DHT22;13826;51.186;4.450;2023-04-16T03:10:08;9.60;99.90
26053;DHT22;13826;51.186;4.450;2023-04-16T03:12:34;9.60;99.90
26053;DHT22;13826;51.186;4.450;2023-04-16T03:15:00;9.60;99.90
26053;DHT22;13826;51.186;4.450;2023-04-16T03:17:26;9.70;99.90
26053;DHT22;13826;51.186;4.450;2023-04-16T03:19:51;9.80;99.90
26053;DHT22;13826;51.186;4.450;2023-04-16T03:22:17;9.80;99.90
26053;DHT22;13826;51.186;4.450;2023-04-16T03:24:42;9.90;99.90
26053;DHT22;13826;51.186;4.450;2023-04-16T03:27:08;10.00;99.90
26053;DHT22;13826;51.186;4.450;2023-04-16T03:29:35;9.90;99.90
26053;DHT22;13826;51.186;4.450;2023-04-16T03:32:01;9.90;99.90
26053;DHT22;13826;51.186;4.450;2023-04-16T03:34:26;9.90;99.90
26053;DHT22;13826;51.186;4.450;2023-04-16T03:36:52;9.70;99.90
26053;DHT22;13826;51.186;4.450;2023-04-16T03:39:17;9.60;99.90
26053;DHT22;13826;51.186;4.450;2023-04-16T03:41:43;9.60;99.90
26053;DHT22;13826;51.186;4.450;2023-04-16T03:44:08;9.60;99.90
26053;DHT22;13826;51.186;4.450;2023-04-16T03:46:34;9.70;99.90
26053;DHT22;13826;51.186;4.450;2023-04-16T03:48:59;9.60;99.90
26053;DHT22;13826;51.186;4.450;2023-04-16T03:51:25;9.70;99.90
26053;DHT22;13826;51.186;4.450;2023-04-16T03:53:51;9.70;99.90
26053;DHT22;13826;51.186;4.450;2023-04-16T03:56:16;9.80;99.90
26053;DHT22;13826;51.186;4.450;2023-04-16T03:58:42;9.80;99.90
26053;DHT22;13826;51.186;4.450;2023-04-16T04:01:08;9.80;99.90
26053;DHT22;13826;51.186;4.450;2023-04-16T04:03:33;9.80;99.90
26053;DHT22;13826;51.186;4.450;2023-04-16T04:05:59;9.70;99.90
26053;DHT22;13826;51.186;4.450;2023-04-16T04:08:24;9.60;99.90
26053;DHT22;13826;51.186;4.450;2023-04-16T04:10:50;9.60;99.90
26053;DHT22;13826;51.186;4.450;2023-04-16T04:13:16;9.60;99.90
26053;DHT22;13826;51.186;4.450;2023-04-16T04:15:42;9.60;99.90
26053;DHT22;13826;51.186;4.450;2023-04-16T04:18:08;9.60;99.90
26053;DHT22;13826;51.186;4.450;2023-04-16T04:20:33;9.70;99.90
26053;DHT22;13826;51.186;4.450;2023-04-16T04:23:03;9.60;99.90
26053;DHT22;13826;51.186;4.450;2023-04-16T04:25:28;9.50;99.90
26053;DHT22;13826;51.186;4.450;2023-04-16T04:27:54;9.50;99.90
26053;DHT22;13826;51.186;4.450;2023-04-16T04:30:20;9.60;99.90
26053;DHT22;13826;51.186;4.450;2023-04-16T04:32:45;9.60;99.90
26053;DHT22;13826;51.186;4.450;2023-04-16T04:35:11;9.50;99.90
26053;DHT22;13826;51.186;4.450;2023-04-16T04:37:36;9.70;99.90
26053;DHT22;13826;51.186;4.450;2023-04-16T04:40:02;9.60;99.90
26053;DHT22;13826;51.186;4.450;2023-04-16T04:42:28;9.60;99.90
26053;DHT22;13826;51.186;4.450;2023-04-16T04:44:53;9.70;99.90
26053;DHT22;13826;51.186;4.450;2023-04-16T04:47:19;9.70;99.90
26053;DHT22;13826;51.186;4.450;2023-04-16T04:49:44;9.80;99.90
26053;DHT22;13826;51.186;4.450;2023-04-16T04:52:10;9.70;99.90
26053;DHT22;13826;51.186;4.450;2023-04-16T04:54:36;9.80;99.90
26053;DHT22;13826;51.186;4.450;2023-04-16T04:57:05;9.70;99.90
26053;DHT22;13826;51.186;4.450;2023-04-16T04:59:31;9.70;99.90
26053;DHT22;13826;51.186;4.450;2023-04-16T05:01:57;9.70;99.90
26053;DHT22;13826;51.186;4.450;2023-04-16T05:04:22;9.70;99.90
26053;DHT22;13826;51.186;4.450;2023-04-16T05:06:48;9.70;99.90
26053;DHT22;13826;51.186;4.450;2023-04-16T05:09:13;9.70;99.90
26053;DHT22;13826;51.186;4.450;2023-04-16T05:11:39;9.60;99.90
26053;DHT22;13826;51.186;4.450;2023-04-16T05:14:05;9.50;99.90
26053;DHT22;13826;51.186;4.450;2023-04-16T05:16:31;9.60;99.90
26053;DHT22;13826;51.186;4.450;2023-04-16T05:18:56;9.60;99.90
26053;DHT22;13826;51.186;4.450;2023-04-16T05:21:22;9.70;99.90
26053;DHT22;13826;51.186;4.450;2023-04-16T05:23:48;9.80;99.90
26053;DHT22;13826;51.186;4.450;2023-04-16T05:26:13;9.80;99.90
26053;DHT22;13826;51.186;4.450;2023-04-16T05:28:39;9.80;99.90
26053;DHT22;13826;51.186;4.450;2023-04-16T05:31:04;9.80;99.90
26053;DHT22;13826;51.186;4.450;2023-04-16T05:33:30;9.80;99.90
26053;DHT22;13826;51.186;4.450;2023-04-16T05:35:56;9.80;99.90
26053;DHT22;13826;51.186;4.450;2023-04-16T05:38:21;9.70;99.90
26053;DHT22;13826;51.186;4.450;2023-04-16T05:40:47;9.70;99.90
26053;DHT22;13826;51.186;4.450;2023-04-16T05:43:12;9.80;99.90
26053;DHT22;13826;51.186;4.450;2023-04-16T05:45:38;9.70;99.90
26053;DHT22;13826;51.186;4.450;2023-04-16T05:48:08;9.60;99.90
26053;DHT22;13826;51.186;4.450;2023-04-16T05:50:34;9.60;99.90
26053;DHT22;13826;51.186;4.450;2023-04-16T05:53:01;9.70;99.90
26053;DHT22;13826;51.186;4.450;2023-04-16T05:55:26;9.80;99.90
26053;DHT22;13826;51.186;4.450;2023-04-16T05:57:52;9.90;99.90
26053;DHT22;13826;51.186;4.450;2023-04-16T06:00:17;9.90;99.90
26053;DHT22;13826;51.186;4.450;2023-04-16T06:02:43;9.80;99.90
26053;DHT22;13826;51.186;4.450;2023-04-16T06:05:09;9.80;99.90
26053;DHT22;13826;51.186;4.450;2023-04-16T06:07:34;9.80;99.90
26053;DHT22;13826;51.186;4.450;2023-04-16T06:10:00;9.60;99.90
26053;DHT22;13826;51.186;4.450;2023-04-16T06:12:25;9.50;99.90
26053;DHT22;13826;51.186;4.450;2023-04-16T06:14:51;9.60;99.90
26053;DHT22;13826;51.186;4.450;2023-04-16T06:17:16;9.60;99.90
26053;DHT22;13826;51.186;4.450;2023-04-16T06:19:43;9.70;99.90
26053;DHT22;13826;51.186;4.450;2023-04-16T06:22:09;9.80;99.90
26053;DHT22;13826;51.186;4.450;2023-04-16T06:24:34;9.70;99.90
26053;DHT22;13826;51.186;4.450;2023-04-16T06:27:00;9.70;99.90
26053;DHT22;13826;51.186;4.450;2023-04-16T06:29:27;9.60;99.90
26053;DHT22;13826;51.186;4.450;2023-04-16T06:31:53;9.60;99.90
26053;DHT22;13826;51.186;4.450;2023-04-16T06:34:18;9.60;99.90
26053;DHT22;13826;51.186;4.450;2023-04-16T06:36:44;9.60;99.90
26053;DHT22;13826;51.186;4.450;2023-04-16T06:39:09;9.80;99.90
26053;DHT22;13826;51.186;4.450;2023-04-16T06:41:35;9.60;99.90
26053;DHT22;13826;51.186;4.450;2023-04-16T06:44:01;9.60;99.90
26053;DHT22;13826;51.186;4.450;2023-04-16T06:46:26;9.70;99.90
26053;DHT22;13826;51.186;4.450;2023-04-16T06:48:52;9.70;99.90
26053;DHT22;13826;51.186;4.450;2023-04-16T06:51:17;9.60;99.90
26053;DHT22;13826;51.186;4.450;2023-04-16T06:53:43;9.60;99.90
26053;DHT22;13826;51.186;4.450;2023-04-16T06:56:08;9.50;99.90
26053;DHT22;13826;51.186;4.450;2023-04-16T06:58:34;9.50;99.90
26053;DHT22;13826;51.186;4.450;2023-04-16T07:00:59;9.50;99.90
26053;DHT22;13826;51.186;4.450;2023-04-16T07:03:26;9.50;99.90
26053;DHT22;13826;51.186;4.450;2023-04-16T07:05:52;9.70;99.90
26053;DHT22;13826;51.186;4.450;2023-04-16T07:08:17;9.60;99.90
26053;DHT22;13826;51.186;4.450;2023-04-16T07:10:43;9.70;99.90
26053;DHT22;13826;51.186;4.450;2023-04-16T07:13:09;9.80;99.90
26053;DHT22;13826;51.186;4.450;2023-04-16T07:15:35;9.80;99.90
26053;DHT22;13826;51.186;4.450;2023-04-16T07:18:00;9.70;99.90
26053;DHT22;13826;51.186;4.450;2023-04-16T07:20:26;9.60;99.90
26053;DHT22;13826;51.186;4.450;2023-04-16T07:22:51;9.60;99.90
26053;DHT22;13826;51.186;4.450;2023-04-16T07:25:17;9.60;99.90
26053;DHT22;13826;51.186;4.450;2023-04-16T07:27:43;9.60;99.90
26053;DHT22;13826;51.186;4.450;2023-04-16T07:30:08;9.60;99.90
26053;DHT22;13826;51.186;4.450;2023-04-16T07:32:34;9.60;99.90
26053;DHT22;13826;51.186;4.450;2023-04-16T07:34:59;9.60;99.90
26053;DHT22;13826;51.186;4.450;2023-04-16T07:37:25;9.70;99.90
26053;DHT22;13826;51.186;4.450;2023-04-16T07:39:50;9.80;99.90
26053;DHT22;13826;51.186;4.450;2023-04-16T07:42:16;9.80;99.90
26053;DHT22;13826;51.186;4.450;2023-04-16T07:44:42;9.80;99.90
26053;DHT22;13826;51.186;4.450;2023-04-16T07:47:08;9.80;99.90
26053;DHT22;13826;51.186;4.450;2023-04-16T07:49:33;9.80;99.90
26053;DHT22;13826;51.186;4.450;2023-04-16T07:51:59;9.60;99.90
26053;DHT22;13826;51.186;4.450;2023-04-16T07:54:25;9.60;99.90
26053;DHT22;13826;51.186;4.450;2023-04-16T07:56:50;9.60;99.90
26053;DHT22;13826;51.186;4.450;2023-04-16T07:59:16;9.70;99.90
26053;DHT22;13826;51.186;4.450;2023-04-16T08:01:42;9.80;99.90
26053;DHT22;13826;51.186;4.450;2023-04-16T08:04:07;9.70;99.90
26053;DHT22;13826;51.186;4.450;2023-04-16T08:06:33;9.80;99.90
26053;DHT22;13826;51.186;4.450;2023-04-16T08:08:58;9.80;99.90
26053;DHT22;13826;51.186;4.450;2023-04-16T08:11:24;9.90;99.90
26053;DHT22;13826;51.186;4.450;2023-04-16T08:13:49;10.00;99.90
26053;DHT22;13826;51.186;4.450;2023-04-16T08:16:15;10.00;99.90
26053;DHT22;13826;51.186;4.450;2023-04-16T08:18:40;9.90;99.90
26053;DHT22;13826;51.186;4.450;2023-04-16T08:21:06;9.90;99.90
26053;DHT22;13826;51.186;4.450;2023-04-16T08:23:31;10.00;99.90
26053;DHT22;13826;51.186;4.450;2023-04-16T08:25:57;10.00;99.90
26053;DHT22;13826;51.186;4.450;2023-04-16T08:28:22;9.90;99.90
26053;DHT22;13826;51.186;4.450;2023-04-16T08:30:48;9.90;99.90
26053;DHT22;13826;51.186;4.450;2023-04-16T08:33:14;9.80;99.90
26053;DHT22;13826;51.186;4.450;2023-04-16T08:35:39;9.80;99.90
26053;DHT22;13826;51.186;4.450;2023-04-16T08:38:05;9.80;99.90
26053;DHT22;13826;51.186;4.450;2023-04-16T08:40:31;10.00;99.90
26053;DHT22;13826;51.186;4.450;2023-04-16T08:42:59;10.10;99.90
26053;DHT22;13826;51.186;4.450;2023-04-16T08:45:27;10.20;99.90
26053;DHT22;13826;51.186;4.450;2023-04-16T08:47:52;10.00;99.90
26053;DHT22;13826;51.186;4.450;2023-04-16T08:50:21;10.20;99.90
26053;DHT22;13826;51.186;4.450;2023-04-16T08:55:45;10.10;99.90
26053;DHT22;13826;51.186;4.450;2023-04-16T08:58:18;10.20;99.90
26053;DHT22;13826;51.186;4.450;2023-04-16T09:00:44;10.30;99.90
26053;DHT22;13826;51.186;4.450;2023-04-16T09:03:10;10.10;99.90
26053;DHT22;13826;51.186;4.450;2023-04-16T09:05:36;10.30;99.90
26053;DHT22;13826;51.186;4.450;2023-04-16T09:08:03;10.50;99.90
26053;DHT22;13826;51.186;4.450;2023-04-16T09:10:29;10.60;99.90
26053;DHT22;13826;51.186;4.450;2023-04-16T09:12:55;10.60;99.90
26053;DHT22;13826;51.186;4.450;2023-04-16T09:15:21;10.70;99.90
26053;DHT22;13826;51.186;4.450;2023-04-16T09:17:46;10.70;99.90
26053;DHT22;13826;51.186;4.450;2023-04-16T09:20:13;10.80;99.90
26053;DHT22;13826;51.186;4.450;2023-04-16T09:22:39;10.70;99.90
26053;DHT22;13826;51.186;4.450;2023-04-16T09:25:05;10.70;99.90
26053;DHT22;13826;51.186;4.450;2023-04-16T09:27:30;10.60;99.90
26053;DHT22;13826;51.186;4.450;2023-04-16T09:29:56;10.50;99.90
26053;DHT22;13826;51.186;4.450;2023-04-16T09:32:25;10.70;99.90
26053;DHT22;13826;51.186;4.450;2023-04-16T09:34:57;10.70;99.90
26053;DHT22;13826;51.186;4.450;2023-04-16T09:37:29;10.70;99.90
26053;DHT22;13826;51.186;4.450;2023-04-16T09:39:59;10.60;99.90
26053;DHT22;13826;51.186;4.450;2023-04-16T09:42:26;10.70;99.90
26053;DHT22;13826;51.186;4.450;2023-04-16T09:44:52;10.60;99.90
26053;DHT22;13826;51.186;4.450;2023-04-16T09:47:18;10.50;99.90
26053;DHT22;13826;51.186;4.450;2023-04-16T09:49:44;10.60;99.90
26053;DHT22;13826;51.186;4.450;2023-04-16T09:52:13;10.60;99.90
26053;DHT22;13826;51.186;4.450;2023-04-16T09:54:49;10.50;99.90
26053;DHT22;13826;51.186;4.450;2023-04-16T09:57:35;10.70;99.90
26053;DHT22;13826;51.186;4.450;2023-04-16T10:00:05;10.60;99.90
26053;DHT22;13826;51.186;4.450;2023-04-16T10:02:31;10.60;99.90
26053;DHT22;13826;51.186;4.450;2023-04-16T10:05:00;10.70;99.90
26053;DHT22;13826;51.186;4.450;2023-04-16T10:07:32;10.70;99.90
26053;DHT22;13826;51.186;4.450;2023-04-16T10:09:58;10.80;99.90
26053;DHT22;13826;51.186;4.450;2023-04-16T10:12:23;10.70;99.90
26053;DHT22;13826;51.186;4.450;2023-04-16T10:14:49;10.70;99.90
26053;DHT22;13826;51.186;4.450;2023-04-16T10:17:15;10.80;99.90
26053;DHT22;13826;51.186;4.450;2023-04-16T10:19:40;10.80;99.90
26053;DHT22;13826;51.186;4.450;2023-04-16T10:22:06;10.90;99.90
26053;DHT22;13826;51.186;4.450;2023-04-16T10:24:32;11.00;99.90
26053;DHT22;13826;51.186;4.450;2023-04-16T10:26:58;10.90;99.90
26053;DHT22;13826;51.186;4.450;2023-04-16T10:29:24;10.70;99.90
26053;DHT22;13826;51.186;4.450;2023-04-16T10:31:50;10.70;99.90
26053;DHT22;13826;51.186;4.450;2023-04-16T10:34:16;10.90;99.90
26053;DHT22;13826;51.186;4.450;2023-04-16T10:36:42;10.90;99.90
26053;DHT22;13826;51.186;4.450;2023-04-16T10:39:11;11.00;99.90
26053;DHT22;13826;51.186;4.450;2023-04-16T10:41:37;11.00;99.90
26053;DHT22;13826;51.186;4.450;2023-04-16T10:44:04;10.90;99.90
26053;DHT22;13826;51.186;4.450;2023-04-16T10:46:32;11.00;99.90
26053;DHT22;13826;51.186;4.450;2023-04-16T10:49:01;11.00;99.90
26053;DHT22;13826;51.186;4.450;2023-04-16T10:51:33;11.00;99.90
26053;DHT22;13826;51.186;4.450;2023-04-16T10:54:03;11.20;99.90
26053;DHT22;13826;51.186;4.450;2023-04-16T10:56:44;11.20;99.90
26053;DHT22;13826;51.186;4.450;2023-04-16T10:59:10;11.30;99.90
26053;DHT22;13826;51.186;4.450;2023-04-16T11:01:36;11.20;99.90
26053;DHT22;13826;51.186;4.450;2023-04-16T11:07:02;11.20;99.90
26053;DHT22;13826;51.186;4.450;2023-04-16T11:12:33;11.30;99.90
26053;DHT22;13826;51.186;4.450;2023-04-16T11:15:00;11.10;99.90
26053;DHT22;13826;51.186;4.450;2023-04-16T11:17:30;10.90;99.90
26053;DHT22;13826;51.186;4.450;2023-04-16T11:19:56;11.00;99.90
26053;DHT22;13826;51.186;4.450;2023-04-16T11:22:21;11.10;99.90
26053;DHT22;13826;51.186;4.450;2023-04-16T11:24:52;11.20;99.90
26053;DHT22;13826;51.186;4.450;2023-04-16T11:27:17;11.40;99.90
26053;DHT22;13826;51.186;4.450;2023-04-16T11:29:43;11.50;99.90
26053;DHT22;13826;51.186;4.450;2023-04-16T11:32:09;11.70;99.90
26053;DHT22;13826;51.186;4.450;2023-04-16T11:34:42;11.60;99.90
26053;DHT22;13826;51.186;4.450;2023-04-16T11:37:07;11.60;99.90
26053;DHT22;13826;51.186;4.450;2023-04-16T11:39:33;11.60;99.90
26053;DHT22;13826;51.186;4.450;2023-04-16T11:41:58;11.60;99.90
26053;DHT22;13826;51.186;4.450;2023-04-16T11:44:25;11.80;99.90
26053;DHT22;13826;51.186;4.450;2023-04-16T11:46:51;11.80;99.90
26053;DHT22;13826;51.186;4.450;2023-04-16T11:49:26;11.80;99.90
26053;DHT22;13826;51.186;4.450;2023-04-16T11:51:52;11.70;99.90
26053;DHT22;13826;51.186;4.450;2023-04-16T11:54:19;11.70;99.90
26053;DHT22;13826;51.186;4.450;2023-04-16T11:56:46;11.60;99.90
26053;DHT22;13826;51.186;4.450;2023-04-16T11:59:19;11.70;99.90
26053;DHT22;13826;51.186;4.450;2023-04-16T12:01:45;11.70;99.90
26053;DHT22;13826;51.186;4.450;2023-04-16T12:04:12;11.80;99.90
26053;DHT22;13826;51.186;4.450;2023-04-16T12:06:38;11.70;99.90
26053;DHT22;13826;51.186;4.450;2023-04-16T12:09:25;11.60;99.90
26053;DHT22;13826;51.186;4.450;2023-04-16T12:11:51;11.70;99.90
26053;DHT22;13826;51.186;4.450;2023-04-16T12:14:17;12.00;99.90
26053;DHT22;13826;51.186;4.450;2023-04-16T12:16:42;12.10;99.80
26053;DHT22;13826;51.186;4.450;2023-04-16T12:19:10;12.30;98.60
26053;DHT22;13826;51.186;4.450;2023-04-16T12:21:54;12.50;94.90
26053;DHT22;13826;51.186;4.450;2023-04-16T12:24:24;12.60;92.10
26053;DHT22;13826;51.186;4.450;2023-04-16T12:26:52;12.70;91.70
26053;DHT22;13826;51.186;4.450;2023-04-16T12:29:21;12.40;89.70
26053;DHT22;13826;51.186;4.450;2023-04-16T12:31:48;12.50;91.90
26053;DHT22;13826;51.186;4.450;2023-04-16T12:34:14;12.60;85.40
26053;DHT22;13826;51.186;4.450;2023-04-16T12:36:40;12.40;90.70
26053;DHT22;13826;51.186;4.450;2023-04-16T12:39:06;12.60;84.80
26053;DHT22;13826;51.186;4.450;2023-04-16T12:41:32;12.50;85.40
26053;DHT22;13826;51.186;4.450;2023-04-16T12:46:31;12.40;84.30
26053;DHT22;13826;51.186;4.450;2023-04-16T12:48:56;12.50;89.00
26053;DHT22;13826;51.186;4.450;2023-04-16T12:51:22;12.40;86.00
26053;DHT22;13826;51.186;4.450;2023-04-16T12:53:48;12.30;87.90
26053;DHT22;13826;51.186;4.450;2023-04-16T12:56:14;12.20;88.50
26053;DHT22;13826;51.186;4.450;2023-04-16T12:58:39;12.10;91.70
26053;DHT22;13826;51.186;4.450;2023-04-16T13:01:05;12.40;91.00
26053;DHT22;13826;51.186;4.450;2023-04-16T13:03:30;12.40;84.50
26053;DHT22;13826;51.186;4.450;2023-04-16T13:05:56;12.40;82.20
26053;DHT22;13826;51.186;4.450;2023-04-16T13:08:21;12.40;84.00
26053;DHT22;13826;51.186;4.450;2023-04-16T13:10:47;12.60;87.90
26053;DHT22;13826;51.186;4.450;2023-04-16T13:13:13;12.80;73.90
26053;DHT22;13826;51.186;4.450;2023-04-16T13:15:38;12.80;71.50
26053;DHT22;13826;51.186;4.450;2023-04-16T13:18:04;12.90;69.10
26053;DHT22;13826;51.186;4.450;2023-04-16T13:20:29;13.10;66.40
26053;DHT22;13826;51.186;4.450;2023-04-16T13:22:55;13.20;55.30
26053;DHT22;13826;51.186;4.450;2023-04-16T13:25:20;13.30;53.10
26053;DHT22;13826;51.186;4.450;2023-04-16T13:27:47;13.30;46.40
26053;DHT22;13826;51.186;4.450;2023-04-16T13:30:12;13.10;51.40
26053;DHT22;13826;51.186;4.450;2023-04-16T13:32:38;13.10;55.40
26053;DHT22;13826;51.186;4.450;2023-04-16T13:35:05;13.30;52.70
26053;DHT22;13826;51.186;4.450;2023-04-16T13:37:30;13.50;42.50
26053;DHT22;13826;51.186;4.450;2023-04-16T13:39:56;13.20;46.90
26053;DHT22;13826;51.186;4.450;2023-04-16T13:42:21;13.30;50.70
26053;DHT22;13826;51.186;4.450;2023-04-16T13:44:47;13.60;48.50
26053;DHT22;13826;51.186;4.450;2023-04-16T13:47:17;13.70;39.00
26053;DHT22;13826;51.186;4.450;2023-04-16T13:49:45;13.60;29.90
26053;DHT22;13826;51.186;4.450;2023-04-16T13:52:11;13.90;26.00
26053;DHT22;13826;51.186;4.450;2023-04-16T13:54:37;13.80;16.40
26053;DHT22;13826;51.186;4.450;2023-04-16T13:57:02;13.60;27.50
26053;DHT22;13826;51.186;4.450;2023-04-16T13:59:28;13.50;37.10
26053;DHT22;13826;51.186;4.450;2023-04-16T14:01:53;13.70;31.40
26053;DHT22;13826;51.186;4.450;2023-04-16T14:04:19;13.60;27.70
26053;DHT22;13826;51.186;4.450;2023-04-16T14:06:47;13.60;33.80
26053;DHT22;13826;51.186;4.450;2023-04-16T14:09:13;13.90;15.00
26053;DHT22;13826;51.186;4.450;2023-04-16T14:11:41;13.70;19.80
26053;DHT22;13826;51.186;4.450;2023-04-16T14:14:06;13.40;33.10
26053;DHT22;13826;51.186;4.450;2023-04-16T14:16:32;13.50;36.90
26053;DHT22;13826;51.186;4.450;2023-04-16T14:18:58;13.40;43.30
26053;DHT22;13826;51.186;4.450;2023-04-16T14:21:24;13.60;41.90
26053;DHT22;13826;51.186;4.450;2023-04-16T14:23:50;13.60;35.10
26053;DHT22;13826;51.186;4.450;2023-04-16T14:26:16;13.40;38.50
26053;DHT22;13826;51.186;4.450;2023-04-16T14:28:42;13.40;38.90
26053;DHT22;13826;51.186;4.450;2023-04-16T14:31:07;13.50;36.40
26053;DHT22;13826;51.186;4.450;2023-04-16T14:33:33;13.30;34.70
26053;DHT22;13826;51.186;4.450;2023-04-16T14:36:01;13.30;40.10
26053;DHT22;13826;51.186;4.450;2023-04-16T14:38:27;13.20;46.10
26053;DHT22;13826;51.186;4.450;2023-04-16T14:40:53;13.10;52.00
26053;DHT22;13826;51.186;4.450;2023-04-16T14:43:19;13.10;51.90
26053;DHT22;13826;51.186;4.450;2023-04-16T14:45:44;13.10;52.50
26053;DHT22;13826;51.186;4.450;2023-04-16T14:48:10;13.20;51.20
26053;DHT22;13826;51.186;4.450;2023-04-16T14:50:35;13.30;46.20
26053;DHT22;13826;51.186;4.450;2023-04-16T14:53:02;13.30;45.20
26053;DHT22;13826;51.186;4.450;2023-04-16T14:55:28;13.40;41.40
26053;DHT22;13826;51.186;4.450;2023-04-16T14:57:53;13.30;42.10
26053;DHT22;13826;51.186;4.450;2023-04-16T15:00:20;13.20;45.00
26053;DHT22;13826;51.186;4.450;2023-04-16T15:02:46;13.20;48.90
26053;DHT22;13826;51.186;4.450;2023-04-16T15:05:12;13.10;48.00
26053;DHT22;13826;51.186;4.450;2023-04-16T15:07:38;12.70;62.00
26053;DHT22;13826;51.186;4.450;2023-04-16T15:10:04;12.80;65.10
26053;DHT22;13826;51.186;4.450;2023-04-16T15:12:29;12.90;59.30
26053;DHT22;13826;51.186;4.450;2023-04-16T15:14:55;12.80;64.60
26053;DHT22;13826;51.186;4.450;2023-04-16T15:17:21;12.90;66.30
26053;DHT22;13826;51.186;4.450;2023-04-16T15:19:46;13.00;62.10
26053;DHT22;13826;51.186;4.450;2023-04-16T15:22:12;13.20;55.50
26053;DHT22;13826;51.186;4.450;2023-04-16T15:24:39;13.10;53.90
26053;DHT22;13826;51.186;4.450;2023-04-16T15:27:04;13.20;52.50
26053;DHT22;13826;51.186;4.450;2023-04-16T15:29:31;13.00;58.00
26053;DHT22;13826;51.186;4.450;2023-04-16T15:31:56;13.00;62.50
26053;DHT22;13826;51.186;4.450;2023-04-16T15:34:22;13.10;61.70
26053;DHT22;13826;51.186;4.450;2023-04-16T15:36:50;13.10;59.80
26053;DHT22;13826;51.186;4.450;2023-04-16T15:39:15;13.00;55.70
26053;DHT22;13826;51.186;4.450;2023-04-16T15:41:41;13.10;61.00
26053;DHT22;13826;51.186;4.450;2023-04-16T15:44:06;13.20;54.00